Terminal Aerodrome Forecast
Issued by NWS

Home | Current Version | Previous Version | Text Only | Print | Product List | Glossary On
Versions: 1 2 3 4 5 6 7 8 9 10 11 12 13 14 15 16 17 18 19 20 21
000
FTUS46 KMFR 290540
TAFRBG
TAF
KRBG 290540Z 2906/3006 00000KT P6SM BKN120
     FM291100 00000KT 3SM BR SCT005
     FM291400 00000KT 1SM BR OVC004
     FM291900 00000KT 4SM BR SCT007
     FM292100 VRB03KT P6SM SCT100=

USA.gov is the U.S. government's official web portal to all federal, state and local government web resources and services.